LFBI/PIS METAR and TAF weather

Enter ICAO airport designator
Station Type Date Time Source
LFBI METAR 2020/07/09 08:00 UTC NOAA

LFBI 090800Z AUTO VRB02KT CAVOK 25/15 Q1017 NOSIG


Station Type Date Time Source
LFBI Decoded METAR 2020/07/09 08:00 UTC NOAA

Poitiers, France (LFBI) 46-35N 000-19E 120M
Jul 09, 2020 - 04:00 AM EDT / 2020.07.09 0800 UTC
Wind: Variable at 2 MPH (2 KT):0
Visibility: greater than 7 mile(s):0
Temperature: 77 F (25 C)
Dew Point: 59 F (15 C)
Relative Humidity: 53%
Pressure (altimeter): 30.03 in. Hg (1017 hPa)
ob: LFBI 090800Z AUTO VRB02KT CAVOK 25/15 Q1017 NOSIG
cycle: 8

Station Type Date Time Source
LFBI TAF 2020/07/09 06:21 UTC NOAA

TAF LFBI 090500Z 0906/1006 32003KT CAVOK
BECMG 0922/0924 30007KT OVC010
TEMPO 1000/1006 3000 -RADZ OVC005

Example: see airport list